createdAt,value
2023-01-29T00:02:11.631Z,6.13
2023-01-29T00:04:38.962Z,7.15
2023-01-29T00:07:05.811Z,7.15
2023-01-29T00:09:33.239Z,6.32
2023-01-29T00:12:00.344Z,7.70
2023-01-29T00:14:27.649Z,7.60
2023-01-29T00:16:54.959Z,6.95
2023-01-29T00:19:22.215Z,7.90
2023-01-29T00:21:49.119Z,7.07
2023-01-29T00:24:16.418Z,7.22
2023-01-29T00:26:43.420Z,7.82
2023-01-29T00:29:11.057Z,7.57
2023-01-29T00:31:38.229Z,7.65
2023-01-29T00:34:07.610Z,7.03
2023-01-29T00:36:34.744Z,7.20
2023-01-29T00:39:10.493Z,6.57
2023-01-29T00:41:56.349Z,6.45
2023-01-29T00:44:42.060Z,6.22
2023-01-29T00:47:27.319Z,6.50
2023-01-29T00:49:54.598Z,6.68
2023-01-29T00:52:24.963Z,6.90
2023-01-29T00:54:53.858Z,6.28
2023-01-29T00:57:21.028Z,6.10
2023-01-29T00:59:48.257Z,6.07
2023-01-29T01:02:34.502Z,5.72
2023-01-29T01:05:06.152Z,5.22
2023-01-29T01:07:34.136Z,4.93
2023-01-29T01:10:20.190Z,4.85
2023-01-29T01:12:53.567Z,5.05
2023-01-29T01:15:21.369Z,4.43
2023-01-29T01:17:49.086Z,4.40
2023-01-29T01:20:16.966Z,4.93
2023-01-29T01:22:43.987Z,5.05
2023-01-29T01:25:11.352Z,4.80
2023-01-29T01:27:41.314Z,4.97
2023-01-29T01:30:14.873Z,4.43
2023-01-29T01:32:42.737Z,4.75
2023-01-29T01:35:11.169Z,4.75
2023-01-29T01:37:38.717Z,5.18
2023-01-29T01:40:17.995Z,4.85
2023-01-29T01:42:48.441Z,5.38
2023-01-29T01:45:22.529Z,5.28
2023-01-29T01:47:53.999Z,5.15
2023-01-29T01:50:21.098Z,5.30
2023-01-29T01:52:53.097Z,6.68
2023-01-29T01:55:24.589Z,5.75
2023-01-29T01:57:56.986Z,5.80
2023-01-29T02:00:26.407Z,6.57
2023-01-29T02:03:13.761Z,5.78
2023-01-29T02:06:00.046Z,6.28
2023-01-29T02:08:54.314Z,5.60
2023-01-29T02:11:21.546Z,6.65
2023-01-29T02:13:53.812Z,6.65
2023-01-29T02:16:26.398Z,5.70
2023-01-29T02:18:55.410Z,6.78
2023-01-29T02:21:46.927Z,6.78
2023-01-29T02:25:09.830Z,6.53
2023-01-29T02:30:28.328Z,6.72
2023-01-29T02:33:22.336Z,7.25
2023-01-29T02:35:59.759Z,7.35
2023-01-29T02:39:00.087Z,7.85
2023-01-29T02:41:35.050Z,7.35
2023-01-29T02:44:06.030Z,6.63
2023-01-29T02:46:44.975Z,6.70
2023-01-29T02:49:33.285Z,6.78
2023-01-29T02:52:09.747Z,6.70
2023-01-29T02:54:49.619Z,6.28
2023-01-29T02:57:30.372Z,6.45
2023-01-29T03:00:02.934Z,5.90
2023-01-29T03:02:44.010Z,5.57
2023-01-29T03:05:25.212Z,6.53
2023-01-29T03:07:58.724Z,6.70
2023-01-29T03:10:33.376Z,7.25
2023-01-29T03:13:22.549Z,7.22
2023-01-29T03:16:01.499Z,6.63
2023-01-29T03:18:46.278Z,6.38
2023-01-29T03:21:38.783Z,6.65
2023-01-29T03:24:27.725Z,6.57
2023-01-29T03:27:16.564Z,5.95
2023-01-29T03:30:04.257Z,6.40
2023-01-29T03:32:54.789Z,6.65
2023-01-29T03:35:39.610Z,6.15
2023-01-29T03:38:10.150Z,7.27
2023-01-29T03:40:52.682Z,7.10
2023-01-29T03:43:50.131Z,6.30
2023-01-29T03:46:40.125Z,6.90
2023-01-29T03:49:22.386Z,6.65
2023-01-29T03:52:02.769Z,6.32
2023-01-29T03:54:53.009Z,6.93
2023-01-29T03:57:56.100Z,6.25
2023-01-29T04:00:45.203Z,6.90
2023-01-29T04:03:26.593Z,6.15
2023-01-29T04:06:09.722Z,6.05
2023-01-29T04:08:54.005Z,6.72
2023-01-29T04:11:22.955Z,5.80
2023-01-29T04:13:51.488Z,6.13
2023-01-29T04:16:30.860Z,6.00
2023-01-29T04:19:34.786Z,6.15
2023-01-29T04:22:26.142Z,5.60
2023-01-29T04:24:53.372Z,6.40
2023-01-29T04:27:43.261Z,6.93
2023-01-29T04:30:22.148Z,6.80
2023-01-29T04:33:27.549Z,6.05
2023-01-29T04:36:11.195Z,6.22
2023-01-29T04:38:44.423Z,6.65
2023-01-29T04:41:24.403Z,6.53
2023-01-29T04:44:16.192Z,6.30
2023-01-29T04:47:03.969Z,6.68
2023-01-29T04:49:47.840Z,5.38
2023-01-29T04:52:17.533Z,6.05
2023-01-29T04:55:24.936Z,7.00
2023-01-29T04:58:13.587Z,6.40
2023-01-29T05:00:46.216Z,5.63
2023-01-29T05:03:15.886Z,6.30
2023-01-29T05:05:48.091Z,6.78
2023-01-29T05:08:19.435Z,6.50
2023-01-29T05:10:51.912Z,6.00
2023-01-29T05:13:22.185Z,5.75
2023-01-29T05:15:56.214Z,6.77
2023-01-29T05:18:23.514Z,6.50
2023-01-29T05:20:51.787Z,5.90
2023-01-29T05:23:21.684Z,6.88
2023-01-29T05:25:50.572Z,6.28
2023-01-29T05:28:18.534Z,6.30
2023-01-29T05:30:54.708Z,6.57
2023-01-29T05:33:27.634Z,6.45
2023-01-29T05:35:56.014Z,6.88
2023-01-29T05:38:23.756Z,6.50
2023-01-29T05:40:50.659Z,6.65
2023-01-29T05:43:23.223Z,6.43
2023-01-29T05:45:59.121Z,6.40
2023-01-29T05:48:28.910Z,5.93
2023-01-29T05:51:03.491Z,6.60
2023-01-29T05:53:32.186Z,7.00
2023-01-29T05:56:02.077Z,6.95
2023-01-29T05:58:33.825Z,7.10
2023-01-29T06:03:44.648Z,6.63
2023-01-29T06:06:12.295Z,6.75
2023-01-29T06:08:39.695Z,6.57
2023-01-29T06:11:12.072Z,7.25
2023-01-29T06:13:39.636Z,7.28
2023-01-29T06:16:07.908Z,6.45
2023-01-29T06:18:36.716Z,6.70
2023-01-29T06:21:05.660Z,7.70
2023-01-29T06:23:33.165Z,8.00
2023-01-29T06:26:05.119Z,6.65
2023-01-29T06:28:32.495Z,7.65
2023-01-29T06:31:22.040Z,7.43
2023-01-29T06:33:51.276Z,5.82
2023-01-29T06:36:18.190Z,7.68
2023-01-29T06:38:45.421Z,7.50
2023-01-29T06:41:15.367Z,7.85
2023-01-29T06:43:44.873Z,7.00
2023-01-29T06:46:11.817Z,7.32
2023-01-29T06:48:39.301Z,8.13
2023-01-29T06:51:08.344Z,7.80
2023-01-29T06:53:37.905Z,8.02
2023-01-29T06:56:06.029Z,8.65
2023-01-29T06:58:33.561Z,8.13
2023-01-29T07:01:08.633Z,7.95
2023-01-29T07:03:54.087Z,8.35
2023-01-29T07:06:21.439Z,7.38
2023-01-29T07:08:48.356Z,8.77
2023-01-29T07:11:15.479Z,8.50
2023-01-29T07:13:42.537Z,7.70
2023-01-29T07:16:09.822Z,7.20
2023-01-29T07:18:37.507Z,7.55
2023-01-29T07:21:06.908Z,7.78
2023-01-29T07:23:35.010Z,8.32
2023-01-29T07:26:04.510Z,7.03
2023-01-29T07:28:31.738Z,6.75
2023-01-29T07:30:59.614Z,7.35
2023-01-29T07:33:27.068Z,6.85
2023-01-29T07:35:54.234Z,6.43
2023-01-29T07:38:21.146Z,7.32
2023-01-29T07:40:48.961Z,6.50
2023-01-29T07:43:16.841Z,6.43
2023-01-29T07:45:44.043Z,7.35
2023-01-29T07:48:12.938Z,6.97
2023-01-29T07:50:40.644Z,7.05
2023-01-29T07:53:15.293Z,6.00
2023-01-29T07:55:45.583Z,6.15
2023-01-29T07:58:12.730Z,6.60
2023-01-29T08:00:40.082Z,7.10
2023-01-29T08:03:13.409Z,8.35
2023-01-29T08:05:40.621Z,7.32
2023-01-29T08:08:08.075Z,6.47
2023-01-29T08:10:36.604Z,7.22
2023-01-29T08:13:04.507Z,6.60
2023-01-29T08:15:32.706Z,6.70
2023-01-29T08:18:01.715Z,6.68
2023-01-29T08:20:29.060Z,7.25
2023-01-29T08:23:03.700Z,7.05
2023-01-29T08:25:31.126Z,7.22
2023-01-29T08:27:59.546Z,8.13
2023-01-29T08:30:29.422Z,7.70
2023-01-29T08:32:57.307Z,7.47
2023-01-29T08:35:25.566Z,8.57
2023-01-29T08:37:59.723Z,6.68
2023-01-29T08:40:29.535Z,7.40
2023-01-29T08:43:02.687Z,8.00
2023-01-29T08:45:34.061Z,6.57
2023-01-29T08:48:01.143Z,7.00
2023-01-29T08:50:30.928Z,7.35
2023-01-29T08:52:59.732Z,7.40
2023-01-29T08:55:28.219Z,6.80
2023-01-29T08:57:57.392Z,7.40
2023-01-29T09:00:24.856Z,7.05
2023-01-29T09:02:52.185Z,6.85
2023-01-29T09:05:19.857Z,7.63
2023-01-29T09:07:47.002Z,6.45
2023-01-29T09:10:14.148Z,7.53
2023-01-29T09:12:41.079Z,7.18
2023-01-29T09:15:10.994Z,8.13
2023-01-29T09:17:38.003Z,7.35
2023-01-29T09:20:08.566Z,7.63
2023-01-29T09:22:35.756Z,8.50
2023-01-29T09:25:20.957Z,7.22
2023-01-29T09:27:48.152Z,7.20
2023-01-29T09:30:15.431Z,8.48
2023-01-29T09:32:53.037Z,7.38
2023-01-29T09:35:21.391Z,7.72
2023-01-29T09:37:49.589Z,8.15
2023-01-29T09:40:30.558Z,8.07
2023-01-29T09:43:06.735Z,6.70
2023-01-29T09:45:34.349Z,6.20
2023-01-29T09:48:05.863Z,8.05
2023-01-29T09:50:41.317Z,7.50
2023-01-29T09:53:17.554Z,7.85
2023-01-29T09:56:10.783Z,7.18
2023-01-29T09:58:42.549Z,7.75
2023-01-29T10:01:28.298Z,6.50
2023-01-29T10:04:18.507Z,7.35
2023-01-29T10:07:16.515Z,7.53
2023-01-29T10:09:49.399Z,7.80
2023-01-29T10:12:33.057Z,9.18
2023-01-29T10:15:13.872Z,7.85
2023-01-29T10:17:54.639Z,7.43
2023-01-29T10:20:34.224Z,8.02
2023-01-29T10:23:33.415Z,8.70
2023-01-29T10:26:01.736Z,8.05
2023-01-29T10:28:43.424Z,9.00
2023-01-29T10:31:15.096Z,7.72
2023-01-29T10:36:47.633Z,8.43
2023-01-29T10:39:22.200Z,8.02
2023-01-29T10:42:11.511Z,8.18
2023-01-29T10:44:53.464Z,9.20
2023-01-29T10:47:35.970Z,8.52
2023-01-29T10:50:17.174Z,8.13
2023-01-29T10:53:17.106Z,9.00
2023-01-29T10:56:01.185Z,9.07
2023-01-29T10:58:41.849Z,8.77
2023-01-29T11:01:10.720Z,8.43
2023-01-29T11:03:38.553Z,8.60
2023-01-29T11:06:34.985Z,9.27
2023-01-29T11:09:17.186Z,8.90
2023-01-29T11:11:49.080Z,8.63
2023-01-29T11:14:25.144Z,9.90
2023-01-29T11:16:52.381Z,8.70
2023-01-29T11:19:37.349Z,8.63
2023-01-29T11:22:04.530Z,9.75
2023-01-29T11:24:31.914Z,8.43
2023-01-29T11:27:00.177Z,8.57
2023-01-29T11:29:30.099Z,6.90
2023-01-29T11:32:00.022Z,9.20
2023-01-29T11:34:33.635Z,9.32
2023-01-29T11:37:03.174Z,9.25
2023-01-29T11:39:32.291Z,8.30
2023-01-29T11:42:01.251Z,8.77
2023-01-29T11:44:41.694Z,8.13
2023-01-29T11:47:18.738Z,8.20
2023-01-29T11:49:52.585Z,8.10
2023-01-29T11:52:23.051Z,8.98
2023-01-29T11:55:15.923Z,8.52
2023-01-29T11:57:46.813Z,8.07
2023-01-29T12:00:20.370Z,8.93
2023-01-29T12:02:54.325Z,8.50
2023-01-29T12:05:25.516Z,8.38
2023-01-29T12:08:02.473Z,8.32
2023-01-29T12:10:36.079Z,8.02
2023-01-29T12:13:10.868Z,8.05
2023-01-29T12:15:39.841Z,8.77
2023-01-29T12:18:44.344Z,8.40
2023-01-29T12:21:30.126Z,9.48
2023-01-29T12:24:25.031Z,9.57
2023-01-29T12:27:01.106Z,9.30
2023-01-29T12:29:34.109Z,9.27
2023-01-29T12:32:25.809Z,9.23
2023-01-29T12:34:56.642Z,10.35
2023-01-29T12:37:48.577Z,9.93
2023-01-29T12:40:19.611Z,9.90
2023-01-29T12:42:51.601Z,10.02
2023-01-29T12:47:57.506Z,9.73
2023-01-29T12:50:32.547Z,10.20
2023-01-29T12:53:07.389Z,10.65
2023-01-29T12:55:42.387Z,10.15
2023-01-29T12:58:22.821Z,9.55
2023-01-29T13:00:54.346Z,11.10
2023-01-29T13:03:21.585Z,9.52
2023-01-29T13:06:02.019Z,10.13
2023-01-29T13:08:41.678Z,10.75
2023-01-29T13:11:16.627Z,9.52
2023-01-29T13:13:54.104Z,7.57
2023-01-29T13:16:29.023Z,11.13
2023-01-29T13:19:00.413Z,9.23
2023-01-29T13:21:35.121Z,10.73
2023-01-29T13:24:12.783Z,11.45
2023-01-29T13:26:41.323Z,12.25
2023-01-29T13:29:30.130Z,11.00
2023-01-29T13:32:00.066Z,11.25
2023-01-29T13:34:45.090Z,12.05
2023-01-29T13:37:20.043Z,10.20
2023-01-29T13:39:52.696Z,11.43
2023-01-29T13:42:26.201Z,11.18
2023-01-29T13:44:57.579Z,12.15
2023-01-29T13:47:28.262Z,11.07
2023-01-29T13:50:29.745Z,12.35
2023-01-29T13:53:00.441Z,10.88
2023-01-29T13:55:37.280Z,12.05
2023-01-29T13:58:33.491Z,11.85
2023-01-29T14:01:01.632Z,13.65
2023-01-29T14:03:39.877Z,11.77
2023-01-29T14:06:38.287Z,12.02
2023-01-29T14:09:34.326Z,12.82
2023-01-29T14:12:01.737Z,13.23
2023-01-29T14:14:59.479Z,13.18
2023-01-29T14:17:28.629Z,13.60
2023-01-29T14:20:04.236Z,13.90
2023-01-29T14:22:33.871Z,15.02
2023-01-29T14:25:06.184Z,15.43
2023-01-29T14:27:35.602Z,12.98
2023-01-29T14:30:09.933Z,15.48
2023-01-29T14:32:40.539Z,14.52
2023-01-29T14:35:19.452Z,14.95
2023-01-29T14:37:52.900Z,15.10
2023-01-29T14:40:23.518Z,15.25
2023-01-29T14:43:04.149Z,14.50
2023-01-29T14:45:32.330Z,13.45
2023-01-29T14:48:11.744Z,14.55
2023-01-29T14:50:50.960Z,14.23
2023-01-29T14:53:34.134Z,11.55
2023-01-29T14:56:05.277Z,14.20
2023-01-29T15:01:37.653Z,14.48
2023-01-29T15:04:13.723Z,14.38
2023-01-29T15:06:50.499Z,14.98
2023-01-29T15:09:41.985Z,14.13
2023-01-29T15:12:27.239Z,10.02
2023-01-29T15:15:02.984Z,10.77
2023-01-29T15:17:37.984Z,13.40
2023-01-29T15:20:35.878Z,13.35
2023-01-29T15:23:04.790Z,13.10
2023-01-29T15:25:48.130Z,13.45
2023-01-29T15:28:15.374Z,12.57
2023-01-29T15:30:43.818Z,13.57
2023-01-29T15:33:14.581Z,12.57
2023-01-29T15:35:43.321Z,13.85
2023-01-29T15:38:22.080Z,14.32
2023-01-29T15:41:03.879Z,14.50
2023-01-29T15:43:35.626Z,13.25
2023-01-29T15:46:07.519Z,15.02
2023-01-29T15:48:43.756Z,15.05
2023-01-29T15:51:20.479Z,14.18
2023-01-29T15:53:53.955Z,15.00
2023-01-29T15:56:28.218Z,13.63
2023-01-29T15:58:59.096Z,14.93
2023-01-29T16:01:27.831Z,13.45
2023-01-29T16:03:56.813Z,15.73
2023-01-29T16:06:26.153Z,14.55
2023-01-29T16:08:55.346Z,14.43
2023-01-29T16:11:23.000Z,17.00
2023-01-29T16:13:51.627Z,16.63
2023-01-29T16:16:25.428Z,16.92
2023-01-29T16:19:00.011Z,15.80
2023-01-29T16:21:39.825Z,16.10
2023-01-29T16:24:22.213Z,17.33
2023-01-29T16:26:52.516Z,19.30
2023-01-29T16:29:23.661Z,15.88
2023-01-29T16:31:54.820Z,17.65
2023-01-29T16:34:34.976Z,16.90
2023-01-29T16:37:06.059Z,15.48
2023-01-29T16:39:38.514Z,18.33
2023-01-29T16:42:20.251Z,17.42
2023-01-29T16:44:51.736Z,17.67
2023-01-29T16:47:37.294Z,18.02
2023-01-29T16:50:46.300Z,17.35
2023-01-29T16:53:23.424Z,17.05
2023-01-29T16:55:52.584Z,17.67
2023-01-29T16:58:24.976Z,17.95
2023-01-29T17:00:56.882Z,18.90
2023-01-29T17:03:27.292Z,15.88
2023-01-29T17:05:55.086Z,18.17
2023-01-29T17:08:37.083Z,18.52
2023-01-29T17:11:05.161Z,17.80
2023-01-29T17:13:36.859Z,19.00
2023-01-29T17:18:42.343Z,17.83
2023-01-29T17:21:09.431Z,16.48
2023-01-29T17:23:36.744Z,18.30
2023-01-29T17:26:06.926Z,19.38
2023-01-29T17:28:34.274Z,17.05
2023-01-29T17:31:06.702Z,19.25
2023-01-29T17:33:37.291Z,19.15
2023-01-29T17:36:04.542Z,20.73
2023-01-29T17:38:32.624Z,20.20
2023-01-29T17:41:06.177Z,19.13
2023-01-29T17:43:34.236Z,19.63
2023-01-29T17:46:01.200Z,19.27
2023-01-29T17:48:30.029Z,22.02
2023-01-29T17:51:00.781Z,19.45
2023-01-29T17:53:43.354Z,20.77
2023-01-29T17:56:21.583Z,20.17
2023-01-29T17:58:48.762Z,20.02
2023-01-29T18:01:15.654Z,20.40
2023-01-29T18:03:42.935Z,21.85
2023-01-29T18:06:20.335Z,21.67
2023-01-29T18:08:47.461Z,21.30
2023-01-29T18:11:14.415Z,22.50
2023-01-29T18:13:42.023Z,20.08
2023-01-29T18:16:09.368Z,21.27
2023-01-29T18:18:36.822Z,18.95
2023-01-29T18:21:05.606Z,20.73
2023-01-29T18:23:32.916Z,20.90
2023-01-29T18:25:59.793Z,21.17
2023-01-29T18:28:27.139Z,20.48
2023-01-29T18:30:54.366Z,18.75
2023-01-29T18:33:24.190Z,20.02
2023-01-29T18:35:51.460Z,19.52
2023-01-29T18:38:18.589Z,18.83
2023-01-29T18:40:45.587Z,21.40
2023-01-29T18:43:14.798Z,20.85
2023-01-29T18:45:42.370Z,21.23
2023-01-29T18:48:09.569Z,19.15
2023-01-29T18:50:36.520Z,20.83
2023-01-29T18:53:04.451Z,20.50
2023-01-29T18:55:31.523Z,19.88
2023-01-29T18:58:28.225Z,20.90
2023-01-29T19:00:48.669Z,19.48
2023-01-29T19:03:16.559Z,20.95
2023-01-29T19:05:43.969Z,21.02
2023-01-29T19:08:11.273Z,19.55
2023-01-29T19:10:38.784Z,20.30
2023-01-29T19:13:06.767Z,21.65
2023-01-29T19:15:34.783Z,21.00
2023-01-29T19:18:02.720Z,23.88
2023-01-29T19:20:29.820Z,20.13
2023-01-29T19:22:57.097Z,22.65
2023-01-29T19:25:24.196Z,21.95
2023-01-29T19:27:51.742Z,22.95
2023-01-29T19:30:19.017Z,20.52
2023-01-29T19:32:46.362Z,22.15
2023-01-29T19:35:13.413Z,22.50
2023-01-29T19:37:40.807Z,21.60
2023-01-29T19:40:08.350Z,19.77
2023-01-29T19:42:37.553Z,19.10
2023-01-29T19:45:05.616Z,22.35
2023-01-29T19:47:33.863Z,20.25
2023-01-29T19:50:00.809Z,20.73
2023-01-29T19:52:49.746Z,22.17
2023-01-29T19:55:18.295Z,20.45
2023-01-29T19:57:46.038Z,17.95
2023-01-29T20:00:14.878Z,20.55
2023-01-29T20:02:42.048Z,19.40
2023-01-29T20:05:12.069Z,20.20
2023-01-29T20:07:41.191Z,21.65
2023-01-29T20:10:11.389Z,19.58
2023-01-29T20:12:39.133Z,20.20
2023-01-29T20:15:07.557Z,22.35
2023-01-29T20:17:34.832Z,20.55
2023-01-29T20:20:02.586Z,18.25
2023-01-29T20:22:29.963Z,17.80
2023-01-29T20:24:57.346Z,18.88
2023-01-29T20:27:24.875Z,18.77
2023-01-29T20:29:52.715Z,18.77
2023-01-29T20:32:19.977Z,19.33
2023-01-29T20:34:51.908Z,18.90
2023-01-29T20:37:20.032Z,21.90
2023-01-29T20:39:47.333Z,20.42
2023-01-29T20:42:14.750Z,19.58
2023-01-29T20:44:42.072Z,20.17
2023-01-29T20:47:09.372Z,18.27
2023-01-29T20:49:36.391Z,20.73
2023-01-29T20:52:03.904Z,20.88
2023-01-29T20:54:33.224Z,20.00
2023-01-29T20:57:00.693Z,18.90
2023-01-29T20:59:29.210Z,18.20
2023-01-29T21:01:56.629Z,21.30
2023-01-29T21:04:23.569Z,18.92
2023-01-29T21:06:50.963Z,18.80
2023-01-29T21:09:17.853Z,19.70
2023-01-29T21:11:45.185Z,18.88
2023-01-29T21:14:12.578Z,19.38
2023-01-29T21:16:40.638Z,17.80
2023-01-29T21:19:07.691Z,19.42
2023-01-29T21:21:34.960Z,20.20
2023-01-29T21:24:01.928Z,19.52
2023-01-29T21:26:29.264Z,18.98
2023-01-29T21:28:56.482Z,18.23
2023-01-29T21:31:23.918Z,18.13
2023-01-29T21:33:51.056Z,17.40
2023-01-29T21:36:18.416Z,18.13
2023-01-29T21:38:45.298Z,20.38
2023-01-29T21:41:12.658Z,19.40
2023-01-29T21:43:39.857Z,19.42
2023-01-29T21:46:12.062Z,20.05
2023-01-29T21:48:40.282Z,18.05
2023-01-29T21:51:07.704Z,17.98
2023-01-29T21:53:36.667Z,17.83
2023-01-29T21:56:05.702Z,19.00
2023-01-29T21:58:32.895Z,19.02
2023-01-29T22:01:36.451Z,17.98
2023-01-29T22:03:47.705Z,18.55
2023-01-29T22:06:15.493Z,18.70
2023-01-29T22:08:42.563Z,19.23
2023-01-29T22:11:10.272Z,20.20
2023-01-29T22:13:37.268Z,19.05
2023-01-29T22:16:06.072Z,19.33
2023-01-29T22:18:33.378Z,18.88
2023-01-29T22:21:04.714Z,19.00
2023-01-29T22:23:32.077Z,19.48
2023-01-29T22:26:04.003Z,17.75
2023-01-29T22:28:31.161Z,18.02
2023-01-29T22:31:02.891Z,19.30
2023-01-29T22:33:30.173Z,19.63
2023-01-29T22:35:57.685Z,21.17
2023-01-29T22:38:24.877Z,17.52
2023-01-29T22:40:53.535Z,20.35
2023-01-29T22:43:21.361Z,20.42
2023-01-29T22:45:48.958Z,18.38
2023-01-29T22:48:15.825Z,18.33
2023-01-29T22:50:43.071Z,19.35
2023-01-29T22:53:10.076Z,19.75
2023-01-29T22:55:37.207Z,19.73
2023-01-29T22:58:04.070Z,18.92
2023-01-29T23:00:31.280Z,19.30
2023-01-29T23:02:58.257Z,18.15
2023-01-29T23:05:25.458Z,19.70
2023-01-29T23:07:52.306Z,19.30
2023-01-29T23:10:19.822Z,18.10
2023-01-29T23:12:46.767Z,19.48
2023-01-29T23:15:14.089Z,17.83
2023-01-29T23:17:40.989Z,19.38
2023-01-29T23:20:08.846Z,19.83
2023-01-29T23:22:35.922Z,20.00
2023-01-29T23:25:03.453Z,20.38
2023-01-29T23:27:30.430Z,19.83
2023-01-29T23:29:57.586Z,20.40
2023-01-29T23:32:24.484Z,18.10
2023-01-29T23:34:51.699Z,17.85
2023-01-29T23:37:18.532Z,18.85
2023-01-29T23:39:45.747Z,18.85
2023-01-29T23:42:12.977Z,18.95
2023-01-29T23:44:40.370Z,18.55
2023-01-29T23:47:08.173Z,17.23
2023-01-29T23:49:35.518Z,17.77
2023-01-29T23:52:02.420Z,17.02
2023-01-29T23:54:29.552Z,16.45
2023-01-29T23:56:56.478Z,17.88
2023-01-29T23:59:27.684Z,15.77
